Huvudsida
METAR-TAF:

METAR-TAF

Flygplatser :

Milano-Linate flygplats

Milano, Italien

latitud: 45-26N, longitud: 009-17E, höjd: 107 m

Aktuellt väderrapport

Denna rapport gjordes för 34 minuter sedan, klockan 14:20 UTC
Vind 5 kt från syd, varierande mellan sydost och väst/sydväst
Temperatur 34°C
Fuktighet 44%
Tryck 1021 hPa
Sikt 10 km eller mer
Inga moln under 1 500 m eller inga cumulonimbus

METAR: LIML 261420Z 19005KT 140V240 CAVOK 34/20 Q1021 NOSIG

Tid: 16:54 (14:54 UTC)

Väderprognos

Denna rapport gjordes för 3 timmar och 54 minuter sedan, klockan 11:00 UTC
Prognos gäller från 26 kl. 12 UTC till 27 kl. 12 UTC
Vind 5 kt varierande vindriktning
Sikt 10 km eller mer
Inga moln under 1 500 m eller inga cumulonimbus

TAF: LIML 261100Z 2612/2712 VRB05KT CAVOK

Aktuella väderrapporter och prognoser från 4000 flygplatser (METAR- och TAF-rapporter).

De tillgängliga stationerna syns som gula och röda prickar på kartan.

För musen över prickarna för att se namnen på stationerna.

Klicka sedan för att få väderrapporter och prognoser.

För att ändra kartan: Klicka på de gröna knapparna med ett svart kors på för att zooma in; den gröna knappen med ett streck på för att zooma ut; eller på de gröna pilarna för angränsande kartor.


METAR-TAF: